RJOF(METAR)
12/11 17:00
METAR RJOF 110800Z 02003KT 8000 -RA FEW005 SCT008 BKN030 07/06 Q1020
RMK 1ST005 4ST008 7SC030 A3014=
戻る
トップページへ戻る
IMOC Co,.Ltd.